sensor_id;sensor_type;location;lat;lon;timestamp;P1;durP1;ratioP1;P2;durP2;ratioP2
21639;SDS011;10981;45.462;10.974;2024-02-16T00:00:13;148.40;;;74.57;;
21639;SDS011;10981;45.462;10.974;2024-02-16T00:02:44;140.27;;;74.50;;
21639;SDS011;10981;45.462;10.974;2024-02-16T00:05:13;140.50;;;73.53;;
21639;SDS011;10981;45.462;10.974;2024-02-16T00:07:44;142.27;;;74.50;;
21639;SDS011;10981;45.462;10.974;2024-02-16T00:10:13;141.25;;;71.63;;
21639;SDS011;10981;45.462;10.974;2024-02-16T00:12:41;148.05;;;77.50;;
21639;SDS011;10981;45.462;10.974;2024-02-16T00:15:11;151.65;;;78.38;;
21639;SDS011;10981;45.462;10.974;2024-02-16T00:17:42;147.98;;;77.20;;
21639;SDS011;10981;45.462;10.974;2024-02-16T00:20:10;144.13;;;75.60;;
21639;SDS011;10981;45.462;10.974;2024-02-16T00:22:41;149.65;;;75.93;;
21639;SDS011;10981;45.462;10.974;2024-02-16T00:25:10;148.48;;;76.00;;
21639;SDS011;10981;45.462;10.974;2024-02-16T00:27:39;143.63;;;77.78;;
21639;SDS011;10981;45.462;10.974;2024-02-16T00:30:08;156.90;;;76.28;;
21639;SDS011;10981;45.462;10.974;2024-02-16T00:32:40;150.45;;;75.88;;
21639;SDS011;10981;45.462;10.974;2024-02-16T00:35:08;146.98;;;77.65;;
21639;SDS011;10981;45.462;10.974;2024-02-16T00:37:38;153.20;;;77.70;;
21639;SDS011;10981;45.462;10.974;2024-02-16T00:40:06;157.18;;;79.53;;
21639;SDS011;10981;45.462;10.974;2024-02-16T00:42:35;157.35;;;79.43;;
21639;SDS011;10981;45.462;10.974;2024-02-16T00:45:07;151.55;;;76.30;;
21639;SDS011;10981;45.462;10.974;2024-02-16T00:47:35;146.82;;;76.40;;
21639;SDS011;10981;45.462;10.974;2024-02-16T00:50:04;144.35;;;74.32;;
21639;SDS011;10981;45.462;10.974;2024-02-16T00:52:35;154.45;;;75.50;;
21639;SDS011;10981;45.462;10.974;2024-02-16T00:55:05;144.82;;;73.32;;
21639;SDS011;10981;45.462;10.974;2024-02-16T00:57:33;148.68;;;78.57;;
21639;SDS011;10981;45.462;10.974;2024-02-16T01:00:02;147.38;;;80.50;;
21639;SDS011;10981;45.462;10.974;2024-02-16T01:02:31;153.93;;;80.05;;
21639;SDS011;10981;45.462;10.974;2024-02-16T01:05:00;146.25;;;74.70;;
21639;SDS011;10981;45.462;10.974;2024-02-16T01:07:30;156.50;;;78.43;;
21639;SDS011;10981;45.462;10.974;2024-02-16T01:10:00;141.35;;;76.28;;
21639;SDS011;10981;45.462;10.974;2024-02-16T01:12:30;151.02;;;77.35;;
21639;SDS011;10981;45.462;10.974;2024-02-16T01:15:01;144.68;;;76.38;;
21639;SDS011;10981;45.462;10.974;2024-02-16T01:17:30;145.07;;;75.35;;
21639;SDS011;10981;45.462;10.974;2024-02-16T01:20:00;139.63;;;71.63;;
21639;SDS011;10981;45.462;10.974;2024-02-16T01:22:28;133.02;;;71.72;;
21639;SDS011;10981;45.462;10.974;2024-02-16T01:24:57;132.73;;;69.65;;
21639;SDS011;10981;45.462;10.974;2024-02-16T01:27:25;128.45;;;69.75;;
21639;SDS011;10981;45.462;10.974;2024-02-16T01:29:55;128.38;;;68.93;;
21639;SDS011;10981;45.462;10.974;2024-02-16T01:32:23;132.75;;;69.18;;
21639;SDS011;10981;45.462;10.974;2024-02-16T01:34:52;129.55;;;69.40;;
21639;SDS011;10981;45.462;10.974;2024-02-16T01:37:20;128.82;;;67.38;;
21639;SDS011;10981;45.462;10.974;2024-02-16T01:39:48;127.47;;;68.22;;
21639;SDS011;10981;45.462;10.974;2024-02-16T01:42:17;132.48;;;68.93;;
21639;SDS011;10981;45.462;10.974;2024-02-16T01:44:45;133.13;;;69.28;;
21639;SDS011;10981;45.462;10.974;2024-02-16T01:47:14;128.45;;;69.38;;
21639;SDS011;10981;45.462;10.974;2024-02-16T01:49:45;133.70;;;70.95;;
21639;SDS011;10981;45.462;10.974;2024-02-16T01:52:14;137.68;;;68.40;;
21639;SDS011;10981;45.462;10.974;2024-02-16T01:54:42;134.43;;;70.43;;
21639;SDS011;10981;45.462;10.974;2024-02-16T01:57:11;137.07;;;69.75;;
21639;SDS011;10981;45.462;10.974;2024-02-16T01:59:40;139.23;;;73.53;;
21639;SDS011;10981;45.462;10.974;2024-02-16T02:02:08;139.55;;;70.45;;
21639;SDS011;10981;45.462;10.974;2024-02-16T02:04:36;133.25;;;69.90;;
21639;SDS011;10981;45.462;10.974;2024-02-16T02:07:14;138.98;;;70.93;;
21639;SDS011;10981;45.462;10.974;2024-02-16T02:09:43;139.48;;;70.95;;
21639;SDS011;10981;45.462;10.974;2024-02-16T02:12:11;144.38;;;75.13;;
21639;SDS011;10981;45.462;10.974;2024-02-16T02:14:39;145.75;;;71.95;;
21639;SDS011;10981;45.462;10.974;2024-02-16T02:17:09;132.07;;;71.20;;
21639;SDS011;10981;45.462;10.974;2024-02-16T02:19:37;142.48;;;71.43;;
21639;SDS011;10981;45.462;10.974;2024-02-16T02:22:19;142.57;;;72.90;;
21639;SDS011;10981;45.462;10.974;2024-02-16T02:24:48;130.80;;;70.07;;
21639;SDS011;10981;45.462;10.974;2024-02-16T02:27:16;132.63;;;71.68;;
21639;SDS011;10981;45.462;10.974;2024-02-16T02:29:44;138.27;;;70.65;;
21639;SDS011;10981;45.462;10.974;2024-02-16T02:32:13;144.05;;;75.00;;
21639;SDS011;10981;45.462;10.974;2024-02-16T02:34:41;144.75;;;74.88;;
21639;SDS011;10981;45.462;10.974;2024-02-16T02:37:10;151.02;;;75.10;;
21639;SDS011;10981;45.462;10.974;2024-02-16T02:39:41;150.65;;;74.70;;
21639;SDS011;10981;45.462;10.974;2024-02-16T02:42:11;148.65;;;75.72;;
21639;SDS011;10981;45.462;10.974;2024-02-16T02:44:42;155.02;;;79.38;;
21639;SDS011;10981;45.462;10.974;2024-02-16T02:47:17;153.43;;;77.70;;
21639;SDS011;10981;45.462;10.974;2024-02-16T02:49:45;148.52;;;76.53;;
21639;SDS011;10981;45.462;10.974;2024-02-16T02:52:13;150.75;;;77.35;;
21639;SDS011;10981;45.462;10.974;2024-02-16T02:54:42;154.00;;;79.20;;
21639;SDS011;10981;45.462;10.974;2024-02-16T02:57:13;151.45;;;77.22;;
21639;SDS011;10981;45.462;10.974;2024-02-16T02:59:41;151.88;;;75.18;;
21639;SDS011;10981;45.462;10.974;2024-02-16T03:02:09;147.32;;;76.13;;
21639;SDS011;10981;45.462;10.974;2024-02-16T03:04:37;141.68;;;75.82;;
21639;SDS011;10981;45.462;10.974;2024-02-16T03:07:06;147.20;;;76.32;;
21639;SDS011;10981;45.462;10.974;2024-02-16T03:09:34;143.18;;;75.20;;
21639;SDS011;10981;45.462;10.974;2024-02-16T03:12:02;143.82;;;75.25;;
21639;SDS011;10981;45.462;10.974;2024-02-16T03:14:31;144.85;;;74.60;;
21639;SDS011;10981;45.462;10.974;2024-02-16T03:16:59;135.05;;;71.95;;
21639;SDS011;10981;45.462;10.974;2024-02-16T03:19:27;136.10;;;69.60;;
21639;SDS011;10981;45.462;10.974;2024-02-16T03:21:56;150.00;;;76.35;;
21639;SDS011;10981;45.462;10.974;2024-02-16T03:24:26;139.40;;;71.90;;
21639;SDS011;10981;45.462;10.974;2024-02-16T03:26:54;149.50;;;75.63;;
21639;SDS011;10981;45.462;10.974;2024-02-16T03:29:22;141.05;;;74.93;;
21639;SDS011;10981;45.462;10.974;2024-02-16T03:31:50;147.23;;;76.63;;
21639;SDS011;10981;45.462;10.974;2024-02-16T03:34:19;150.80;;;76.05;;
21639;SDS011;10981;45.462;10.974;2024-02-16T03:36:47;135.88;;;70.38;;
21639;SDS011;10981;45.462;10.974;2024-02-16T03:39:15;132.20;;;69.60;;
21639;SDS011;10981;45.462;10.974;2024-02-16T03:41:47;136.05;;;70.65;;
21639;SDS011;10981;45.462;10.974;2024-02-16T03:44:16;132.85;;;71.93;;
21639;SDS011;10981;45.462;10.974;2024-02-16T03:46:44;145.68;;;74.93;;
21639;SDS011;10981;45.462;10.974;2024-02-16T03:49:12;145.10;;;76.00;;
21639;SDS011;10981;45.462;10.974;2024-02-16T03:51:40;140.13;;;75.63;;
21639;SDS011;10981;45.462;10.974;2024-02-16T03:54:09;146.63;;;73.68;;
21639;SDS011;10981;45.462;10.974;2024-02-16T03:56:37;141.98;;;74.93;;
21639;SDS011;10981;45.462;10.974;2024-02-16T03:59:05;152.57;;;75.30;;
21639;SDS011;10981;45.462;10.974;2024-02-16T04:01:36;153.02;;;74.43;;
21639;SDS011;10981;45.462;10.974;2024-02-16T04:04:05;145.50;;;73.78;;
21639;SDS011;10981;45.462;10.974;2024-02-16T04:06:34;148.02;;;77.65;;
21639;SDS011;10981;45.462;10.974;2024-02-16T04:09:02;144.00;;;73.85;;
21639;SDS011;10981;45.462;10.974;2024-02-16T04:11:33;142.50;;;75.00;;
21639;SDS011;10981;45.462;10.974;2024-02-16T04:14:02;144.95;;;74.75;;
21639;SDS011;10981;45.462;10.974;2024-02-16T04:16:33;158.55;;;78.85;;
21639;SDS011;10981;45.462;10.974;2024-02-16T04:19:03;155.35;;;79.13;;
21639;SDS011;10981;45.462;10.974;2024-02-16T04:21:31;157.93;;;77.38;;
21639;SDS011;10981;45.462;10.974;2024-02-16T04:23:59;143.00;;;73.18;;
21639;SDS011;10981;45.462;10.974;2024-02-16T04:26:29;156.90;;;74.90;;
21639;SDS011;10981;45.462;10.974;2024-02-16T04:28:57;150.35;;;75.90;;
21639;SDS011;10981;45.462;10.974;2024-02-16T04:31:27;148.90;;;74.10;;
21639;SDS011;10981;45.462;10.974;2024-02-16T04:33:56;161.38;;;79.43;;
21639;SDS011;10981;45.462;10.974;2024-02-16T04:36:26;146.60;;;75.07;;
21639;SDS011;10981;45.462;10.974;2024-02-16T04:38:54;155.00;;;76.18;;
21639;SDS011;10981;45.462;10.974;2024-02-16T04:41:23;145.43;;;72.72;;
21639;SDS011;10981;45.462;10.974;2024-02-16T04:43:51;142.48;;;72.82;;
21639;SDS011;10981;45.462;10.974;2024-02-16T04:46:21;151.63;;;73.93;;
21639;SDS011;10981;45.462;10.974;2024-02-16T04:48:49;149.18;;;71.03;;
21639;SDS011;10981;45.462;10.974;2024-02-16T04:51:18;138.63;;;68.72;;
21639;SDS011;10981;45.462;10.974;2024-02-16T04:53:46;133.68;;;69.95;;
21639;SDS011;10981;45.462;10.974;2024-02-16T04:56:15;132.50;;;66.60;;
21639;SDS011;10981;45.462;10.974;2024-02-16T04:58:44;145.60;;;70.35;;
21639;SDS011;10981;45.462;10.974;2024-02-16T05:01:12;131.80;;;68.75;;
21639;SDS011;10981;45.462;10.974;2024-02-16T05:03:41;141.45;;;71.03;;
21639;SDS011;10981;45.462;10.974;2024-02-16T05:06:09;129.90;;;68.28;;
21639;SDS011;10981;45.462;10.974;2024-02-16T05:08:37;141.77;;;70.13;;
21639;SDS011;10981;45.462;10.974;2024-02-16T05:11:06;130.00;;;68.68;;
21639;SDS011;10981;45.462;10.974;2024-02-16T05:13:35;135.63;;;70.07;;
21639;SDS011;10981;45.462;10.974;2024-02-16T05:16:07;132.45;;;69.40;;
21639;SDS011;10981;45.462;10.974;2024-02-16T05:18:36;137.80;;;69.95;;
21639;SDS011;10981;45.462;10.974;2024-02-16T05:21:05;123.43;;;66.55;;
21639;SDS011;10981;45.462;10.974;2024-02-16T05:23:34;131.07;;;68.47;;
21639;SDS011;10981;45.462;10.974;2024-02-16T05:26:03;129.85;;;67.35;;
21639;SDS011;10981;45.462;10.974;2024-02-16T05:28:31;129.73;;;67.68;;
21639;SDS011;10981;45.462;10.974;2024-02-16T05:31:03;132.25;;;69.68;;
21639;SDS011;10981;45.462;10.974;2024-02-16T05:33:45;133.63;;;69.18;;
21639;SDS011;10981;45.462;10.974;2024-02-16T05:36:18;138.57;;;69.80;;
21639;SDS011;10981;45.462;10.974;2024-02-16T05:38:48;142.23;;;71.05;;
21639;SDS011;10981;45.462;10.974;2024-02-16T05:41:16;135.40;;;67.28;;
21639;SDS011;10981;45.462;10.974;2024-02-16T05:43:45;136.48;;;68.18;;
21639;SDS011;10981;45.462;10.974;2024-02-16T05:46:14;145.98;;;71.82;;
21639;SDS011;10981;45.462;10.974;2024-02-16T05:48:43;146.55;;;69.43;;
21639;SDS011;10981;45.462;10.974;2024-02-16T05:51:13;145.75;;;70.93;;
21639;SDS011;10981;45.462;10.974;2024-02-16T05:53:41;146.63;;;69.35;;
21639;SDS011;10981;45.462;10.974;2024-02-16T05:56:10;137.73;;;71.65;;
21639;SDS011;10981;45.462;10.974;2024-02-16T05:58:38;136.10;;;71.07;;
21639;SDS011;10981;45.462;10.974;2024-02-16T06:01:06;135.35;;;69.10;;
21639;SDS011;10981;45.462;10.974;2024-02-16T06:03:37;144.20;;;69.55;;
21639;SDS011;10981;45.462;10.974;2024-02-16T06:06:09;147.10;;;68.53;;
21639;SDS011;10981;45.462;10.974;2024-02-16T06:08:38;130.40;;;66.20;;
21639;SDS011;10981;45.462;10.974;2024-02-16T06:11:07;135.23;;;65.05;;
21639;SDS011;10981;45.462;10.974;2024-02-16T06:13:36;138.07;;;66.22;;
21639;SDS011;10981;45.462;10.974;2024-02-16T06:16:07;137.07;;;67.93;;
21639;SDS011;10981;45.462;10.974;2024-02-16T06:18:37;132.52;;;63.85;;
21639;SDS011;10981;45.462;10.974;2024-02-16T06:21:06;131.45;;;64.95;;
21639;SDS011;10981;45.462;10.974;2024-02-16T06:23:35;141.60;;;67.88;;
21639;SDS011;10981;45.462;10.974;2024-02-16T06:26:05;129.05;;;65.53;;
21639;SDS011;10981;45.462;10.974;2024-02-16T06:28:33;133.07;;;66.57;;
21639;SDS011;10981;45.462;10.974;2024-02-16T06:31:02;128.25;;;63.67;;
21639;SDS011;10981;45.462;10.974;2024-02-16T06:33:30;125.43;;;62.40;;
21639;SDS011;10981;45.462;10.974;2024-02-16T06:35:59;125.32;;;62.72;;
21639;SDS011;10981;45.462;10.974;2024-02-16T06:38:27;125.22;;;62.88;;
21639;SDS011;10981;45.462;10.974;2024-02-16T06:40:55;129.60;;;65.18;;
21639;SDS011;10981;45.462;10.974;2024-02-16T06:43:23;140.57;;;65.05;;
21639;SDS011;10981;45.462;10.974;2024-02-16T06:45:54;135.38;;;64.80;;
21639;SDS011;10981;45.462;10.974;2024-02-16T06:48:24;132.60;;;63.88;;
21639;SDS011;10981;45.462;10.974;2024-02-16T06:50:52;141.20;;;66.60;;
21639;SDS011;10981;45.462;10.974;2024-02-16T06:53:21;129.52;;;65.32;;
21639;SDS011;10981;45.462;10.974;2024-02-16T06:55:49;127.03;;;65.75;;
21639;SDS011;10981;45.462;10.974;2024-02-16T06:58:18;123.00;;;63.55;;
21639;SDS011;10981;45.462;10.974;2024-02-16T07:00:47;136.30;;;63.75;;
21639;SDS011;10981;45.462;10.974;2024-02-16T07:03:18;121.45;;;63.17;;
21639;SDS011;10981;45.462;10.974;2024-02-16T07:05:47;136.98;;;64.57;;
21639;SDS011;10981;45.462;10.974;2024-02-16T07:08:15;132.55;;;66.93;;
21639;SDS011;10981;45.462;10.974;2024-02-16T07:10:44;132.60;;;64.50;;
21639;SDS011;10981;45.462;10.974;2024-02-16T07:13:14;133.15;;;67.13;;
21639;SDS011;10981;45.462;10.974;2024-02-16T07:15:42;130.15;;;64.75;;
21639;SDS011;10981;45.462;10.974;2024-02-16T07:18:12;137.93;;;70.07;;
21639;SDS011;10981;45.462;10.974;2024-02-16T07:20:40;133.70;;;67.28;;
21639;SDS011;10981;45.462;10.974;2024-02-16T07:23:09;129.60;;;65.05;;
21639;SDS011;10981;45.462;10.974;2024-02-16T07:25:37;135.52;;;67.20;;
21639;SDS011;10981;45.462;10.974;2024-02-16T07:28:06;142.10;;;71.10;;
21639;SDS011;10981;45.462;10.974;2024-02-16T07:30:35;144.13;;;72.63;;
21639;SDS011;10981;45.462;10.974;2024-02-16T07:33:10;144.45;;;71.90;;
21639;SDS011;10981;45.462;10.974;2024-02-16T07:35:38;145.82;;;72.53;;
21639;SDS011;10981;45.462;10.974;2024-02-16T07:38:06;149.20;;;75.00;;
21639;SDS011;10981;45.462;10.974;2024-02-16T07:40:35;139.32;;;70.15;;
21639;SDS011;10981;45.462;10.974;2024-02-16T07:43:03;142.93;;;70.72;;
21639;SDS011;10981;45.462;10.974;2024-02-16T07:45:32;138.43;;;70.20;;
21639;SDS011;10981;45.462;10.974;2024-02-16T07:48:00;135.75;;;66.38;;
21639;SDS011;10981;45.462;10.974;2024-02-16T07:50:32;133.52;;;64.63;;
21639;SDS011;10981;45.462;10.974;2024-02-16T07:53:01;125.22;;;65.20;;
21639;SDS011;10981;45.462;10.974;2024-02-16T07:55:29;124.55;;;66.75;;
21639;SDS011;10981;45.462;10.974;2024-02-16T07:57:57;126.70;;;65.00;;
21639;SDS011;10981;45.462;10.974;2024-02-16T08:00:26;120.68;;;61.35;;
21639;SDS011;10981;45.462;10.974;2024-02-16T08:02:55;114.80;;;61.15;;
21639;SDS011;10981;45.462;10.974;2024-02-16T08:05:26;114.85;;;60.58;;
21639;SDS011;10981;45.462;10.974;2024-02-16T08:07:54;112.45;;;58.53;;
21639;SDS011;10981;45.462;10.974;2024-02-16T08:10:23;108.15;;;59.95;;
21639;SDS011;10981;45.462;10.974;2024-02-16T08:12:52;107.15;;;59.47;;
21639;SDS011;10981;45.462;10.974;2024-02-16T08:15:21;112.40;;;60.72;;
21639;SDS011;10981;45.462;10.974;2024-02-16T08:17:53;100.60;;;56.53;;
21639;SDS011;10981;45.462;10.974;2024-02-16T08:20:22;106.25;;;57.03;;
21639;SDS011;10981;45.462;10.974;2024-02-16T08:22:50;100.18;;;56.80;;
21639;SDS011;10981;45.462;10.974;2024-02-16T08:25:21;100.95;;;57.38;;
21639;SDS011;10981;45.462;10.974;2024-02-16T08:27:49;102.95;;;56.38;;
21639;SDS011;10981;45.462;10.974;2024-02-16T08:30:18;96.90;;;54.30;;
21639;SDS011;10981;45.462;10.974;2024-02-16T08:32:46;109.28;;;59.33;;
21639;SDS011;10981;45.462;10.974;2024-02-16T08:35:15;100.68;;;55.08;;
21639;SDS011;10981;45.462;10.974;2024-02-16T08:37:44;110.70;;;57.10;;
21639;SDS011;10981;45.462;10.974;2024-02-16T08:40:13;101.80;;;55.75;;
21639;SDS011;10981;45.462;10.974;2024-02-16T08:42:41;107.50;;;57.05;;
21639;SDS011;10981;45.462;10.974;2024-02-16T08:45:10;101.38;;;54.60;;
21639;SDS011;10981;45.462;10.974;2024-02-16T08:47:42;108.07;;;57.20;;
21639;SDS011;10981;45.462;10.974;2024-02-16T08:50:11;94.82;;;53.13;;
21639;SDS011;10981;45.462;10.974;2024-02-16T08:52:39;92.85;;;51.67;;
21639;SDS011;10981;45.462;10.974;2024-02-16T08:55:07;98.80;;;52.47;;
21639;SDS011;10981;45.462;10.974;2024-02-16T08:57:38;97.82;;;52.40;;
21639;SDS011;10981;45.462;10.974;2024-02-16T09:00:06;94.65;;;53.70;;
21639;SDS011;10981;45.462;10.974;2024-02-16T09:02:36;97.30;;;52.13;;
21639;SDS011;10981;45.462;10.974;2024-02-16T09:05:05;94.90;;;50.40;;
21639;SDS011;10981;45.462;10.974;2024-02-16T09:07:33;106.40;;;53.67;;
21639;SDS011;10981;45.462;10.974;2024-02-16T09:10:02;87.47;;;50.58;;
21639;SDS011;10981;45.462;10.974;2024-02-16T09:12:31;98.38;;;53.28;;
21639;SDS011;10981;45.462;10.974;2024-02-16T09:15:00;107.43;;;57.55;;
21639;SDS011;10981;45.462;10.974;2024-02-16T09:17:28;104.43;;;56.92;;
21639;SDS011;10981;45.462;10.974;2024-02-16T09:19:56;113.45;;;58.20;;
21639;SDS011;10981;45.462;10.974;2024-02-16T09:22:25;116.65;;;61.58;;
21639;SDS011;10981;45.462;10.974;2024-02-16T09:24:56;108.65;;;58.97;;
21639;SDS011;10981;45.462;10.974;2024-02-16T09:27:27;116.55;;;59.97;;
21639;SDS011;10981;45.462;10.974;2024-02-16T09:29:55;125.03;;;65.10;;
21639;SDS011;10981;45.462;10.974;2024-02-16T09:32:23;119.93;;;61.15;;
21639;SDS011;10981;45.462;10.974;2024-02-16T09:34:52;121.43;;;66.50;;
21639;SDS011;10981;45.462;10.974;2024-02-16T09:37:22;131.88;;;69.22;;
21639;SDS011;10981;45.462;10.974;2024-02-16T09:39:51;119.53;;;64.47;;
21639;SDS011;10981;45.462;10.974;2024-02-16T09:42:19;107.47;;;55.17;;
21639;SDS011;10981;45.462;10.974;2024-02-16T09:44:50;95.93;;;52.03;;
21639;SDS011;10981;45.462;10.974;2024-02-16T09:47:21;94.30;;;49.85;;
21639;SDS011;10981;45.462;10.974;2024-02-16T09:49:50;99.88;;;52.22;;
21639;SDS011;10981;45.462;10.974;2024-02-16T09:52:19;105.05;;;55.85;;
21639;SDS011;10981;45.462;10.974;2024-02-16T09:54:47;105.13;;;53.55;;
21639;SDS011;10981;45.462;10.974;2024-02-16T09:57:18;109.03;;;55.42;;
21639;SDS011;10981;45.462;10.974;2024-02-16T09:59:49;100.78;;;53.47;;
21639;SDS011;10981;45.462;10.974;2024-02-16T10:02:18;103.63;;;53.67;;
21639;SDS011;10981;45.462;10.974;2024-02-16T10:04:46;101.43;;;53.75;;
21639;SDS011;10981;45.462;10.974;2024-02-16T10:07:14;104.53;;;57.45;;
21639;SDS011;10981;45.462;10.974;2024-02-16T10:09:43;112.53;;;58.15;;
21639;SDS011;10981;45.462;10.974;2024-02-16T10:12:17;105.53;;;55.65;;
21639;SDS011;10981;45.462;10.974;2024-02-16T10:14:56;105.82;;;59.17;;
21639;SDS011;10981;45.462;10.974;2024-02-16T10:17:27;106.78;;;57.13;;
21639;SDS011;10981;45.462;10.974;2024-02-16T10:19:56;111.47;;;58.70;;
21639;SDS011;10981;45.462;10.974;2024-02-16T10:22:26;119.28;;;59.83;;
21639;SDS011;10981;45.462;10.974;2024-02-16T10:24:55;127.80;;;64.05;;
21639;SDS011;10981;45.462;10.974;2024-02-16T10:27:36;119.35;;;62.05;;
21639;SDS011;10981;45.462;10.974;2024-02-16T10:30:05;117.07;;;62.80;;
21639;SDS011;10981;45.462;10.974;2024-02-16T10:32:38;120.60;;;63.55;;
21639;SDS011;10981;45.462;10.974;2024-02-16T10:35:09;112.63;;;59.63;;
21639;SDS011;10981;45.462;10.974;2024-02-16T10:37:39;114.55;;;62.00;;
21639;SDS011;10981;45.462;10.974;2024-02-16T10:40:10;122.85;;;60.63;;
21639;SDS011;10981;45.462;10.974;2024-02-16T10:42:41;126.18;;;60.38;;
21639;SDS011;10981;45.462;10.974;2024-02-16T10:45:12;122.47;;;61.97;;
21639;SDS011;10981;45.462;10.974;2024-02-16T10:47:40;114.03;;;59.83;;
21639;SDS011;10981;45.462;10.974;2024-02-16T10:50:09;116.68;;;59.78;;
21639;SDS011;10981;45.462;10.974;2024-02-16T10:52:40;105.32;;;57.60;;
21639;SDS011;10981;45.462;10.974;2024-02-16T10:55:12;105.97;;;56.20;;
21639;SDS011;10981;45.462;10.974;2024-02-16T10:57:43;99.60;;;54.03;;
21639;SDS011;10981;45.462;10.974;2024-02-16T11:00:12;106.28;;;58.33;;
21639;SDS011;10981;45.462;10.974;2024-02-16T11:02:57;111.63;;;60.20;;
21639;SDS011;10981;45.462;10.974;2024-02-16T11:05:35;109.05;;;57.90;;
21639;SDS011;10981;45.462;10.974;2024-02-16T11:08:14;112.00;;;58.58;;
21639;SDS011;10981;45.462;10.974;2024-02-16T11:13:37;105.22;;;53.97;;
21639;SDS011;10981;45.462;10.974;2024-02-16T11:16:07;100.93;;;52.55;;
21639;SDS011;10981;45.462;10.974;2024-02-16T11:18:38;101.57;;;54.67;;
21639;SDS011;10981;45.462;10.974;2024-02-16T11:21:15;102.93;;;57.22;;
21639;SDS011;10981;45.462;10.974;2024-02-16T11:23:44;109.13;;;54.67;;
21639;SDS011;10981;45.462;10.974;2024-02-16T11:26:12;107.10;;;57.05;;
21639;SDS011;10981;45.462;10.974;2024-02-16T11:28:42;98.97;;;54.20;;
21639;SDS011;10981;45.462;10.974;2024-02-16T11:31:10;101.30;;;59.58;;
21639;SDS011;10981;45.462;10.974;2024-02-16T11:33:43;101.75;;;57.22;;
21639;SDS011;10981;45.462;10.974;2024-02-16T11:36:12;102.15;;;57.65;;
21639;SDS011;10981;45.462;10.974;2024-02-16T11:38:44;99.25;;;54.40;;
21639;SDS011;10981;45.462;10.974;2024-02-16T11:41:13;101.43;;;54.10;;
21639;SDS011;10981;45.462;10.974;2024-02-16T11:43:42;106.82;;;57.83;;
21639;SDS011;10981;45.462;10.974;2024-02-16T11:46:11;106.20;;;55.15;;
21639;SDS011;10981;45.462;10.974;2024-02-16T11:48:40;102.25;;;53.42;;
21639;SDS011;10981;45.462;10.974;2024-02-16T11:51:09;103.25;;;55.05;;
21639;SDS011;10981;45.462;10.974;2024-02-16T11:53:37;104.10;;;54.97;;
21639;SDS011;10981;45.462;10.974;2024-02-16T11:56:06;97.85;;;52.47;;
21639;SDS011;10981;45.462;10.974;2024-02-16T11:58:34;94.32;;;51.72;;
21639;SDS011;10981;45.462;10.974;2024-02-16T12:01:03;99.07;;;53.72;;
21639;SDS011;10981;45.462;10.974;2024-02-16T12:03:40;97.40;;;52.85;;
21639;SDS011;10981;45.462;10.974;2024-02-16T12:06:19;92.00;;;49.72;;
21639;SDS011;10981;45.462;10.974;2024-02-16T12:08:51;88.55;;;49.22;;
21639;SDS011;10981;45.462;10.974;2024-02-16T12:11:20;85.68;;;49.75;;
21639;SDS011;10981;45.462;10.974;2024-02-16T12:13:50;93.95;;;50.03;;
21639;SDS011;10981;45.462;10.974;2024-02-16T12:16:22;88.88;;;49.90;;
21639;SDS011;10981;45.462;10.974;2024-02-16T12:19:01;90.57;;;49.33;;
21639;SDS011;10981;45.462;10.974;2024-02-16T12:21:33;89.55;;;50.47;;
21639;SDS011;10981;45.462;10.974;2024-02-16T12:24:02;86.65;;;50.08;;
21639;SDS011;10981;45.462;10.974;2024-02-16T12:26:31;88.28;;;49.28;;
21639;SDS011;10981;45.462;10.974;2024-02-16T12:28:59;90.38;;;49.33;;
21639;SDS011;10981;45.462;10.974;2024-02-16T12:31:27;90.85;;;49.05;;
21639;SDS011;10981;45.462;10.974;2024-02-16T12:33:58;85.85;;;48.22;;
21639;SDS011;10981;45.462;10.974;2024-02-16T12:36:27;86.65;;;46.67;;
21639;SDS011;10981;45.462;10.974;2024-02-16T12:38:55;93.00;;;49.08;;
21639;SDS011;10981;45.462;10.974;2024-02-16T12:41:23;76.80;;;43.60;;
21639;SDS011;10981;45.462;10.974;2024-02-16T12:43:52;86.60;;;45.55;;
21639;SDS011;10981;45.462;10.974;2024-02-16T12:46:20;88.05;;;49.60;;
21639;SDS011;10981;45.462;10.974;2024-02-16T12:48:48;94.63;;;50.70;;
21639;SDS011;10981;45.462;10.974;2024-02-16T12:51:17;93.03;;;48.60;;
21639;SDS011;10981;45.462;10.974;2024-02-16T12:53:46;88.10;;;50.53;;
21639;SDS011;10981;45.462;10.974;2024-02-16T12:56:14;87.90;;;50.20;;
21639;SDS011;10981;45.462;10.974;2024-02-16T12:58:43;82.82;;;48.15;;
21639;SDS011;10981;45.462;10.974;2024-02-16T13:01:11;89.35;;;48.90;;
21639;SDS011;10981;45.462;10.974;2024-02-16T13:03:52;87.53;;;47.67;;
21639;SDS011;10981;45.462;10.974;2024-02-16T13:06:20;88.72;;;46.72;;
21639;SDS011;10981;45.462;10.974;2024-02-16T13:08:55;88.00;;;46.15;;
21639;SDS011;10981;45.462;10.974;2024-02-16T13:11:23;87.13;;;46.45;;
21639;SDS011;10981;45.462;10.974;2024-02-16T13:13:51;81.20;;;45.17;;
21639;SDS011;10981;45.462;10.974;2024-02-16T13:16:20;85.05;;;47.67;;
21639;SDS011;10981;45.462;10.974;2024-02-16T13:18:48;87.05;;;47.03;;
21639;SDS011;10981;45.462;10.974;2024-02-16T13:21:17;82.80;;;46.13;;
21639;SDS011;10981;45.462;10.974;2024-02-16T13:23:45;90.53;;;49.00;;
21639;SDS011;10981;45.462;10.974;2024-02-16T13:26:13;85.03;;;47.45;;
21639;SDS011;10981;45.462;10.974;2024-02-16T13:28:42;89.47;;;48.50;;
21639;SDS011;10981;45.462;10.974;2024-02-16T13:31:10;84.90;;;46.63;;
21639;SDS011;10981;45.462;10.974;2024-02-16T13:33:38;83.32;;;48.25;;
21639;SDS011;10981;45.462;10.974;2024-02-16T13:36:07;84.70;;;45.83;;
21639;SDS011;10981;45.462;10.974;2024-02-16T13:38:37;90.05;;;48.45;;
21639;SDS011;10981;45.462;10.974;2024-02-16T13:41:05;87.55;;;48.63;;
21639;SDS011;10981;45.462;10.974;2024-02-16T13:43:33;83.15;;;49.00;;
21639;SDS011;10981;45.462;10.974;2024-02-16T13:46:02;83.80;;;49.60;;
21639;SDS011;10981;45.462;10.974;2024-02-16T13:48:31;82.75;;;48.67;;
21639;SDS011;10981;45.462;10.974;2024-02-16T13:50:59;92.07;;;51.55;;
21639;SDS011;10981;45.462;10.974;2024-02-16T13:53:28;92.85;;;49.88;;
21639;SDS011;10981;45.462;10.974;2024-02-16T13:55:58;87.45;;;49.92;;
21639;SDS011;10981;45.462;10.974;2024-02-16T13:58:28;83.10;;;48.72;;
21639;SDS011;10981;45.462;10.974;2024-02-16T14:00:58;87.55;;;51.42;;
21639;SDS011;10981;45.462;10.974;2024-02-16T14:03:29;88.50;;;51.42;;
21639;SDS011;10981;45.462;10.974;2024-02-16T14:05:59;88.00;;;48.83;;
21639;SDS011;10981;45.462;10.974;2024-02-16T14:08:28;83.13;;;50.95;;
21639;SDS011;10981;45.462;10.974;2024-02-16T14:10:57;91.10;;;50.13;;
21639;SDS011;10981;45.462;10.974;2024-02-16T14:13:29;86.40;;;49.33;;